Time;durP1;ratioP1;P1;durP2;ratioP2;P2;SDS_P1;SDS_P2;PMS_P1;PMS_P2;Temp;Humidity;BMP_temperature;BMP_pressure;BME280_temperature;BME280_humidity;BME280_pressure;Samples;Min_cycle;Max_cycle;Signal;HPM_P1;HPM_P2
2023/05/15 00:00:22;;;;;;;;;;;;;;;18.74;66.41;101292.06;1250841;23;658;-62
2023/05/15 00:01:13;;;;;;;;;;;;;;;18.70;65.22;101288.81;1246946;23;611;-62
2023/05/15 00:02:03;;;;;;;;;;;;;;;18.78;65.64;101293.50;1250734;23;1952;-62
2023/05/15 00:02:55;;;;;;;;;;;;;;;18.68;65.53;101287.22;1250612;23;635;-63
2023/05/15 00:03:46;;;;;;;;;;;;;;;18.74;66.80;101283.97;1246392;23;619;-62
2023/05/15 00:04:36;;;;;;;;;;;;;;;18.79;66.03;101283.56;1250672;23;1113;-63
2023/05/15 00:05:27;;;;;;;;;;;;;;;18.76;65.58;101275.75;1250915;23;697;-63
2023/05/15 00:06:17;;;;;;;;;;;;;;;18.71;65.59;101273.47;1251212;23;641;-62
2023/05/15 00:07:08;;;;;;;;;;;;;;;18.74;67.02;101275.88;1250814;23;622;-62
2023/05/15 00:07:58;;;;;;;;;;;;;;;18.71;66.08;101276.16;1246492;23;620;-63
2023/05/15 00:08:48;;;;;;;;;;;;;;;18.80;66.18;101279.88;1246847;23;689;-62
2023/05/15 00:09:39;;;;;;;;;;;;;;;18.87;65.72;101279.13;1251051;23;614;-63
2023/05/15 00:10:29;;;;;;;;;;;;;;;18.91;65.87;101279.72;1250774;23;603;-62
2023/05/15 00:11:22;;;;;;;;;;;;;;;18.83;65.02;101280.41;1250361;23;716;-62
2023/05/15 00:12:12;;;;;;;;;;;;;;;18.75;65.55;101276.72;1246986;23;654;-62
2023/05/15 00:13:03;;;;;;;;;;;;;;;18.80;66.05;101271.75;1250836;23;622;-62
2023/05/15 00:13:53;;;;;;;;;;;;;;;18.87;65.76;101272.88;1251098;23;641;-62
2023/05/15 00:14:44;;;;;;;;;;;;;;;18.88;65.87;101272.75;1250741;23;626;-62
2023/05/15 00:15:34;;;;;;;;;;;;;;;18.94;65.49;101272.19;1251247;23;646;-63
2023/05/15 00:16:24;;;;;;;;;;;;;;;18.98;66.13;101270.91;1249035;23;709;-63
2023/05/15 00:17:15;;;;;;;;;;;;;;;19.01;65.48;101265.19;1250793;23;578;-63
2023/05/15 00:18:05;;;;;;;;;;;;;;;19.01;65.83;101259.78;1250911;23;661;-62
2023/05/15 00:18:56;;;;;;;;;;;;;;;19.03;65.51;101265.06;1250930;23;614;-63
2023/05/15 00:19:46;;;;;;;;;;;;;;;19.00;65.28;101263.47;1251269;23;615;-63
2023/05/15 00:20:37;;;;;;;;;;;;;;;19.02;65.72;101258.78;1251035;23;934;-63
2023/05/15 00:21:27;;;;;;;;;;;;;;;19.03;65.75;101260.50;1251265;23;642;-62
2023/05/15 00:22:17;;;;;;;;;;;;;;;19.04;65.90;101261.34;1251161;23;1924;-63
2023/05/15 00:23:08;;;;;;;;;;;;;;;18.98;65.65;101260.09;1251347;23;649;-63
2023/05/15 00:23:58;;;;;;;;;;;;;;;18.88;65.23;101253.84;1251147;23;914;-62
2023/05/15 00:24:49;;;;;;;;;;;;;;;18.90;65.42;101249.16;1251303;23;644;-63
2023/05/15 00:25:39;;;;;;;;;;;;;;;18.96;65.78;101250.44;1250586;23;645;-62
2023/05/15 00:26:30;;;;;;;;;;;;;;;18.97;65.64;101253.00;1249873;23;637;-62
2023/05/15 00:27:20;;;;;;;;;;;;;;;18.98;65.95;101246.59;1251640;23;598;-63
2023/05/15 00:28:11;;;;;;;;;;;;;;;19.01;65.18;101257.09;1251349;23;665;-63
2023/05/15 00:29:01;;;;;;;;;;;;;;;19.00;65.23;101255.38;1251222;23;629;-63
2023/05/15 00:29:51;;;;;;;;;;;;;;;18.92;66.12;101255.25;1251141;23;649;-63
2023/05/15 00:30:42;;;;;;;;;;;;;;;18.90;66.01;101253.69;1247349;23;661;-62
2023/05/15 00:31:32;;;;;;;;;;;;;;;18.86;65.01;101263.94;1251387;23;680;-63
2023/05/15 00:32:23;;;;;;;;;;;;;;;18.75;65.00;101263.22;1251156;23;688;-62
2023/05/15 00:33:13;;;;;;;;;;;;;;;18.67;66.23;101259.38;1251353;23;634;-62
2023/05/15 00:34:03;;;;;;;;;;;;;;;18.69;66.23;101261.94;1251048;23;664;-63
2023/05/15 00:34:54;;;;;;;;;;;;;;;18.78;66.82;101254.84;1251326;23;622;-63
2023/05/15 00:35:45;;;;;;;;;;;;;;;18.89;65.35;101260.09;1251086;23;629;-62
2023/05/15 00:36:35;;;;;;;;;;;;;;;18.89;66.19;101252.00;1251468;23;654;-63
2023/05/15 00:37:25;;;;;;;;;;;;;;;18.81;66.16;101250.00;1251158;23;649;-63
2023/05/15 00:38:16;;;;;;;;;;;;;;;18.78;65.35;101247.59;1251343;23;657;-63
2023/05/15 00:39:06;;;;;;;;;;;;;;;18.75;66.03;101253.28;1251149;23;614;-62
2023/05/15 00:39:57;;;;;;;;;;;;;;;18.80;66.29;101247.47;1250319;23;602;-62
2023/05/15 00:40:47;;;;;;;;;;;;;;;18.69;66.53;101245.75;1251424;23;637;-62
2023/05/15 00:41:38;;;;;;;;;;;;;;;18.78;66.73;101246.75;1251361;23;685;-62
2023/05/15 00:42:28;;;;;;;;;;;;;;;18.78;66.28;101242.19;1251434;23;1934;-62
2023/05/15 00:43:18;;;;;;;;;;;;;;;18.70;65.49;101242.91;1250997;23;610;-62
2023/05/15 00:44:09;;;;;;;;;;;;;;;18.81;66.38;101244.59;1251050;23;984;-62
2023/05/15 00:44:59;;;;;;;;;;;;;;;18.82;65.73;101235.50;1251133;23;617;-62
2023/05/15 00:45:50;;;;;;;;;;;;;;;18.86;66.67;101236.91;1251039;23;666;-62
2023/05/15 00:46:40;;;;;;;;;;;;;;;18.77;65.39;101237.78;1251163;23;731;-62
2023/05/15 00:47:30;;;;;;;;;;;;;;;18.81;66.07;101233.78;1247316;23;670;-62
2023/05/15 00:48:21;;;;;;;;;;;;;;;18.87;66.01;101235.06;1251154;23;637;-63
2023/05/15 00:49:12;;;;;;;;;;;;;;;18.91;65.86;101236.50;1251065;23;657;-63
2023/05/15 00:50:03;;;;;;;;;;;;;;;18.92;65.47;101225.56;1251250;23;593;-62
2023/05/15 00:50:53;;;;;;;;;;;;;;;18.90;66.21;101232.09;1251111;23;622;-63
2023/05/15 00:51:44;;;;;;;;;;;;;;;18.90;66.18;101232.94;1250966;23;669;-63
2023/05/15 00:52:34;;;;;;;;;;;;;;;18.89;66.09;101231.25;1251159;23;614;-62
2023/05/15 00:53:25;;;;;;;;;;;;;;;18.73;66.88;101237.22;1251030;23;681;-62
2023/05/15 00:54:15;;;;;;;;;;;;;;;18.76;66.76;101235.25;1251287;23;642;-62
2023/05/15 00:55:06;;;;;;;;;;;;;;;18.76;66.56;101229.84;1247249;23;630;-62
2023/05/15 00:55:56;;;;;;;;;;;;;;;18.81;66.49;101233.78;1251178;23;661;-62
2023/05/15 00:56:47;;;;;;;;;;;;;;;18.76;66.37;101233.38;1251152;23;622;-63
2023/05/15 00:57:37;;;;;;;;;;;;;;;18.71;65.91;101228.41;1247329;23;642;-63
2023/05/15 00:58:28;;;;;;;;;;;;;;;18.78;67.18;101223.31;1247474;23;728;-63
2023/05/15 00:59:18;;;;;;;;;;;;;;;18.86;66.32;101225.25;1247659;23;619;-62
2023/05/15 01:00:09;;;;;;;;;;;;;;;18.88;65.99;101223.28;1251069;23;610;-62
2023/05/15 01:00:59;;;;;;;;;;;;;;;18.88;66.26;101223.28;1247017;23;662;-62
2023/05/15 01:01:50;;;;;;;;;;;;;;;18.88;66.32;101218.72;1247110;23;650;-62
2023/05/15 01:02:40;;;;;;;;;;;;;;;18.90;66.14;101216.75;1251322;23;617;-62
2023/05/15 01:03:30;;;;;;;;;;;;;;;18.91;65.93;101213.03;1251104;23;653;-63
2023/05/15 01:04:21;;;;;;;;;;;;;;;18.93;65.92;101215.59;1251106;23;622;-62
2023/05/15 01:05:12;;;;;;;;;;;;;;;18.93;65.77;101215.59;1251147;23;625;-63
2023/05/15 01:06:02;;;;;;;;;;;;;;;18.94;65.75;101218.16;1251176;23;657;-62
2023/05/15 01:06:52;;;;;;;;;;;;;;;18.95;65.95;101219.88;1251277;23;660;-63
2023/05/15 01:07:43;;;;;;;;;;;;;;;18.95;65.44;101224.41;1249729;23;653;-62
2023/05/15 01:08:33;;;;;;;;;;;;;;;18.96;65.97;101218.03;1250952;23;649;-62
2023/05/15 01:09:24;;;;;;;;;;;;;;;18.96;66.02;101216.19;1247237;23;638;-63
2023/05/15 01:10:14;;;;;;;;;;;;;;;18.94;65.55;101215.47;1251444;23;622;-62
2023/05/15 01:11:05;;;;;;;;;;;;;;;18.96;65.63;101218.88;1251135;23;618;-62
2023/05/15 01:11:55;;;;;;;;;;;;;;;18.93;66.17;101219.16;1251216;23;645;-63
2023/05/15 01:12:46;;;;;;;;;;;;;;;18.93;65.52;101215.59;1246942;23;685;-63
2023/05/15 01:13:36;;;;;;;;;;;;;;;18.94;65.99;101210.06;1251364;23;614;-63
2023/05/15 01:14:26;;;;;;;;;;;;;;;18.93;65.53;101219.16;1250919;23;641;-63
2023/05/15 01:15:17;;;;;;;;;;;;;;;18.91;65.34;101217.59;1251459;23;831;-63
2023/05/15 01:16:07;;;;;;;;;;;;;;;18.88;65.18;101218.72;1246997;23;619;-63
2023/05/15 01:16:58;;;;;;;;;;;;;;;18.88;65.69;101221.44;1250895;23;681;-63
2023/05/15 01:17:48;;;;;;;;;;;;;;;18.84;65.99;101217.31;1250933;23;653;-62
2023/05/15 01:18:39;;;;;;;;;;;;;;;18.69;66.70;101219.59;1250845;23;621;-62
2023/05/15 01:19:29;;;;;;;;;;;;;;;18.69;66.19;101229.53;1249583;23;738;-62
2023/05/15 01:20:20;;;;;;;;;;;;;;;18.71;66.55;101224.84;1247180;23;690;-63
2023/05/15 01:21:10;;;;;;;;;;;;;;;18.67;66.00;101223.44;1247208;23;611;-62
2023/05/15 01:22:00;;;;;;;;;;;;;;;18.73;66.66;101225.56;1247358;23;603;-62
2023/05/15 01:22:51;;;;;;;;;;;;;;;18.68;65.50;101215.19;1247853;23;631;-62
2023/05/15 01:23:42;;;;;;;;;;;;;;;18.71;66.63;101219.47;1250590;23;669;-62
2023/05/15 01:24:32;;;;;;;;;;;;;;;18.70;66.69;101220.44;1251330;23;622;-62
2023/05/15 01:25:23;;;;;;;;;;;;;;;18.71;65.93;101216.75;1251182;23;617;-61
2023/05/15 01:26:13;;;;;;;;;;;;;;;18.65;65.83;101222.72;1251063;23;626;-62
2023/05/15 01:27:04;;;;;;;;;;;;;;;18.62;66.52;101223.88;1251007;23;637;-61
2023/05/15 01:27:54;;;;;;;;;;;;;;;18.61;66.42;101229.41;1249320;23;665;-62
2023/05/15 01:28:44;;;;;;;;;;;;;;;18.49;65.32;101220.56;1250958;23;610;-62
2023/05/15 01:29:35;;;;;;;;;;;;;;;18.43;66.09;101226.53;1248473;23;657;-62
2023/05/15 01:30:25;;;;;;;;;;;;;;;18.46;67.15;101225.38;1247312;23;710;-62
2023/05/15 01:31:16;;;;;;;;;;;;;;;18.57;66.87;101219.84;1247382;23;582;-62
2023/05/15 01:32:06;;;;;;;;;;;;;;;18.64;66.47;101229.97;1251235;23;649;-62
2023/05/15 01:32:57;;;;;;;;;;;;;;;18.63;65.89;101222.03;1250918;23;665;-62
2023/05/15 01:33:47;;;;;;;;;;;;;;;18.61;66.46;101229.41;1251168;23;646;-62
2023/05/15 01:34:38;;;;;;;;;;;;;;;18.62;66.41;101229.28;1250971;23;669;-62
2023/05/15 01:35:29;;;;;;;;;;;;;;;18.58;65.50;101218.88;1251323;23;610;-62
2023/05/15 01:36:19;;;;;;;;;;;;;;;18.57;66.66;101230.66;1246928;23;666;-62
2023/05/15 01:37:09;;;;;;;;;;;;;;;18.56;67.21;101221.72;1251329;23;658;-62
2023/05/15 01:38:00;;;;;;;;;;;;;;;18.57;66.22;101230.66;1250508;23;688;-62
2023/05/15 01:38:50;;;;;;;;;;;;;;;18.48;65.85;101226.09;1246846;23;647;-62
2023/05/15 01:39:41;;;;;;;;;;;;;;;18.44;66.36;101222.00;1250990;23;654;-62
2023/05/15 01:40:31;;;;;;;;;;;;;;;18.50;65.94;101230.34;1249377;23;704;-62
2023/05/15 01:41:21;;;;;;;;;;;;;;;18.41;64.98;101222.28;1251113;23;726;-62
2023/05/15 01:42:12;;;;;;;;;;;;;;;18.37;66.81;101227.09;1247141;23;1940;-62
2023/05/15 01:43:02;;;;;;;;;;;;;;;18.42;66.81;101226.69;1251030;23;606;-62
2023/05/15 01:43:54;;;;;;;;;;;;;;;18.37;67.33;101230.66;1250937;23;661;-62
2023/05/15 01:44:45;;;;;;;;;;;;;;;18.43;66.22;101233.78;1250950;23;606;-62
2023/05/15 01:45:35;;;;;;;;;;;;;;;18.49;67.23;101223.25;1248810;23;757;-62
2023/05/15 01:46:25;;;;;;;;;;;;;;;18.48;65.93;101226.09;1251115;23;625;-62
2023/05/15 01:47:16;;;;;;;;;;;;;;;18.43;65.60;101223.84;1250869;23;658;-62
2023/05/15 01:48:06;;;;;;;;;;;;;;;18.39;65.83;101227.81;1250965;23;618;-62
2023/05/15 01:48:57;;;;;;;;;;;;;;;18.45;66.64;101224.53;1250884;23;642;-62
2023/05/15 01:49:47;;;;;;;;;;;;;;;18.49;66.34;101222.41;1251140;23;645;-62
2023/05/15 01:50:38;;;;;;;;;;;;;;;18.50;66.85;101219.56;1251224;23;720;-62
2023/05/15 01:51:28;;;;;;;;;;;;;;;18.49;66.12;101222.41;1249290;23;740;-62
2023/05/15 01:52:18;;;;;;;;;;;;;;;18.33;65.45;101218.41;1247556;23;658;-62
2023/05/15 01:53:09;;;;;;;;;;;;;;;18.27;66.04;101218.97;1247462;23;693;-62
2023/05/15 01:53:59;;;;;;;;;;;;;;;18.29;66.47;101211.59;1249343;23;638;-62
2023/05/15 01:54:50;;;;;;;;;;;;;;;18.39;66.37;101214.31;1250834;23;681;-62
2023/05/15 01:55:40;;;;;;;;;;;;;;;18.35;65.23;101218.28;1251238;23;642;-62
2023/05/15 01:56:31;;;;;;;;;;;;;;;18.35;65.54;101210.19;1250925;23;656;-62
2023/05/15 01:57:21;;;;;;;;;;;;;;;18.33;66.25;101213.03;1250874;23;646;-62
2023/05/15 01:58:11;;;;;;;;;;;;;;;18.34;66.03;101213.88;1246870;23;623;-62
2023/05/15 01:59:02;;;;;;;;;;;;;;;18.30;66.09;101212.44;1251116;23;625;-62
2023/05/15 01:59:52;;;;;;;;;;;;;;;18.17;66.83;101212.72;1251341;23;618;-62
2023/05/15 02:00:43;;;;;;;;;;;;;;;18.33;67.21;101212.16;1247014;23;674;-62
2023/05/15 02:01:33;;;;;;;;;;;;;;;18.38;65.95;101220.69;1251097;23;626;-62
2023/05/15 02:02:24;;;;;;;;;;;;;;;18.44;66.45;101220.16;1250988;23;1943;-62
2023/05/15 02:03:14;;;;;;;;;;;;;;;18.47;66.19;101224.38;1251206;23;704;-62
2023/05/15 02:04:04;;;;;;;;;;;;;;;18.37;66.26;101219.84;1246859;23;635;-63
2023/05/15 02:04:55;;;;;;;;;;;;;;;18.32;66.17;101224.81;1251036;23;626;-62
2023/05/15 02:05:45;;;;;;;;;;;;;;;18.26;65.15;101216.44;1251286;23;532;-62
2023/05/15 02:06:36;;;;;;;;;;;;;;;18.16;65.17;101221.81;1250905;23;681;-62
2023/05/15 02:07:26;;;;;;;;;;;;;;;18.12;66.22;101225.75;1251254;23;646;-63
2023/05/15 02:08:17;;;;;;;;;;;;;;;18.10;65.56;101221.50;1246913;23;806;-62
2023/05/15 02:09:07;;;;;;;;;;;;;;;18.01;67.51;101220.50;1246628;23;623;-62
2023/05/15 02:09:57;;;;;;;;;;;;;;;18.05;64.77;101219.25;1250873;23;606;-63
2023/05/15 02:10:48;;;;;;;;;;;;;;;17.97;66.43;101214.53;1250730;23;642;-63
2023/05/15 02:11:38;;;;;;;;;;;;;;;17.97;65.18;101214.53;1247121;23;655;-63
2023/05/15 02:12:29;;;;;;;;;;;;;;;18.04;65.78;101220.22;1247880;23;650;-63
2023/05/15 02:13:19;;;;;;;;;;;;;;;18.00;65.71;101226.88;1247769;23;619;-63
2023/05/15 02:14:10;;;;;;;;;;;;;;;18.02;66.74;101214.13;1251264;23;712;-62
2023/05/15 02:15:00;;;;;;;;;;;;;;;18.00;66.01;101216.09;1251435;23;621;-63
2023/05/15 02:15:50;;;;;;;;;;;;;;;17.97;65.52;101211.81;1250975;23;609;-63
2023/05/15 02:16:41;;;;;;;;;;;;;;;18.00;65.96;101211.56;1250805;23;673;-62
2023/05/15 02:17:31;;;;;;;;;;;;;;;18.07;67.13;101213.72;1251321;23;629;-63
2023/05/15 02:18:22;;;;;;;;;;;;;;;18.09;65.46;101215.28;1251207;23;680;-63
2023/05/15 02:19:12;;;;;;;;;;;;;;;18.12;65.47;101209.59;1251328;23;637;-63
2023/05/15 02:20:04;;;;;;;;;;;;;;;18.11;66.21;101210.56;1251177;23;677;-63
2023/05/15 02:20:55;;;;;;;;;;;;;;;18.12;66.28;101212.28;1247626;23;655;-63
2023/05/15 02:21:46;;;;;;;;;;;;;;;18.22;66.06;101204.22;1249128;23;564;-63
2023/05/15 02:22:36;;;;;;;;;;;;;;;18.13;65.22;101210.44;1247832;23;650;-63
2023/05/15 02:23:26;;;;;;;;;;;;;;;18.20;65.85;101207.06;1248305;23;642;-62
2023/05/15 02:24:17;;;;;;;;;;;;;;;18.26;66.19;101203.81;1247492;23;677;-63
2023/05/15 02:25:07;;;;;;;;;;;;;;;18.30;66.55;101202.50;1247272;23;786;-63
2023/05/15 02:25:58;;;;;;;;;;;;;;;18.34;65.67;101197.69;1249367;23;610;-63
2023/05/15 02:26:48;;;;;;;;;;;;;;;18.34;66.23;101203.94;1251101;23;638;-62
2023/05/15 02:27:39;;;;;;;;;;;;;;;18.36;65.50;101201.94;1251133;23;737;-62
2023/05/15 02:28:29;;;;;;;;;;;;;;;18.39;65.70;101204.38;1251486;23;669;-63
2023/05/15 02:29:20;;;;;;;;;;;;;;;18.39;65.97;101207.06;1251193;23;606;-62
2023/05/15 02:30:10;;;;;;;;;;;;;;;18.40;65.92;101202.53;1251369;23;641;-63
2023/05/15 02:31:00;;;;;;;;;;;;;;;18.28;64.40;101206.34;1251155;23;664;-62
2023/05/15 02:31:51;;;;;;;;;;;;;;;18.22;66.74;101199.69;1250919;23;720;-62
2023/05/15 02:32:41;;;;;;;;;;;;;;;18.30;66.00;101209.75;1251319;23;680;-62
2023/05/15 02:33:32;;;;;;;;;;;;;;;18.36;65.24;101201.94;1251138;23;633;-62
2023/05/15 02:34:22;;;;;;;;;;;;;;;18.37;65.60;101203.66;1251019;23;665;-63
2023/05/15 02:35:12;;;;;;;;;;;;;;;18.43;66.15;101207.66;1251227;23;910;-63
2023/05/15 02:36:03;;;;;;;;;;;;;;;18.42;65.73;101216.75;1246933;23;651;-63
2023/05/15 02:36:53;;;;;;;;;;;;;;;18.43;65.51;101213.03;1251182;23;637;-63
2023/05/15 02:37:44;;;;;;;;;;;;;;;18.44;65.97;101213.91;1251099;23;649;-62
2023/05/15 02:38:34;;;;;;;;;;;;;;;18.42;66.07;101205.09;1251136;23;645;-63
2023/05/15 02:39:25;;;;;;;;;;;;;;;18.42;65.38;101207.78;1251180;23;661;-62
2023/05/15 02:40:15;;;;;;;;;;;;;;;18.44;65.87;101212.06;1251262;23;633;-63
2023/05/15 02:41:05;;;;;;;;;;;;;;;18.46;65.98;101212.75;1250973;23;625;-63
2023/05/15 02:41:56;;;;;;;;;;;;;;;18.45;65.13;101218.31;1247271;23;631;-62
2023/05/15 02:42:46;;;;;;;;;;;;;;;18.44;65.09;101208.50;1251212;23;638;-63
2023/05/15 02:43:37;;;;;;;;;;;;;;;18.42;65.25;101207.78;1250763;23;660;-62
2023/05/15 02:44:27;;;;;;;;;;;;;;;18.41;65.25;101206.94;1251029;23;819;-62
2023/05/15 02:45:18;;;;;;;;;;;;;;;18.45;66.09;101204.81;1247127;23;658;-62
2023/05/15 02:46:08;;;;;;;;;;;;;;;18.46;65.93;101219.97;1251012;23;654;-62
2023/05/15 02:46:58;;;;;;;;;;;;;;;18.45;65.66;101207.50;1251285;23;642;-63
2023/05/15 02:47:50;;;;;;;;;;;;;;;18.46;65.62;101210.03;1251073;23;662;-63
2023/05/15 02:48:40;;;;;;;;;;;;;;;18.46;65.24;101211.88;1250787;23;1210;-62
2023/05/15 02:49:31;;;;;;;;;;;;;;;18.46;65.23;101207.34;1250873;23;669;-62
2023/05/15 02:50:21;;;;;;;;;;;;;;;18.45;65.24;101204.81;1246528;23;619;-62
2023/05/15 02:51:12;;;;;;;;;;;;;;;18.44;65.79;101209.34;1247473;23;638;-62
2023/05/15 02:52:02;;;;;;;;;;;;;;;18.43;65.42;101214.88;1248040;23;643;-62
2023/05/15 02:52:52;;;;;;;;;;;;;;;18.43;65.18;101223.00;1251046;23;661;-62
2023/05/15 02:53:43;;;;;;;;;;;;;;;18.43;65.34;101213.03;1250885;23;622;-62
2023/05/15 02:54:33;;;;;;;;;;;;;;;18.42;65.80;101213.19;1250926;23;622;-63
2023/05/15 02:55:24;;;;;;;;;;;;;;;18.45;65.96;101215.59;1246901;23;678;-63
2023/05/15 02:56:14;;;;;;;;;;;;;;;18.45;65.99;101218.31;1251172;23;670;-62
2023/05/15 02:57:06;;;;;;;;;;;;;;;18.38;65.46;101212.59;1251034;23;666;-62
2023/05/15 02:57:57;;;;;;;;;;;;;;;18.36;65.28;101207.34;1250993;23;650;-62
2023/05/15 02:58:48;;;;;;;;;;;;;;;18.39;65.68;101206.22;1249354;23;689;-62
2023/05/15 02:59:38;;;;;;;;;;;;;;;18.37;65.79;101206.34;1251017;23;623;-62
2023/05/15 03:00:29;;;;;;;;;;;;;;;18.33;66.00;101204.06;1251080;23;634;-62
2023/05/15 03:01:20;;;;;;;;;;;;;;;18.35;65.48;101205.63;1251185;23;674;-63
2023/05/15 03:02:10;;;;;;;;;;;;;;;18.37;65.25;101205.50;1247327;23;1909;-62
2023/05/15 03:03:00;;;;;;;;;;;;;;;18.35;65.73;101202.94;1250897;23;638;-62
2023/05/15 03:03:51;;;;;;;;;;;;;;;18.37;65.72;101200.97;1250768;23;641;-62
2023/05/15 03:04:42;;;;;;;;;;;;;;;18.42;65.97;101210.50;1250868;23;642;-62
2023/05/15 03:05:32;;;;;;;;;;;;;;;18.42;65.67;101211.34;1249160;23;642;-62
2023/05/15 03:06:22;;;;;;;;;;;;;;;18.42;64.80;101210.50;1251064;23;617;-62
2023/05/15 03:07:13;;;;;;;;;;;;;;;18.42;65.31;101205.09;1250748;23;625;-62
2023/05/15 03:08:03;;;;;;;;;;;;;;;18.43;65.52;101212.19;1251143;23;628;-62
2023/05/15 03:08:54;;;;;;;;;;;;;;;18.38;65.59;101209.91;1250706;23;661;-62
2023/05/15 03:09:44;;;;;;;;;;;;;;;18.37;65.52;101200.97;1251360;23;1097;-62
2023/05/15 03:10:35;;;;;;;;;;;;;;;18.42;65.59;101205.94;1247006;23;612;-62
2023/05/15 03:11:25;;;;;;;;;;;;;;;18.42;65.94;101205.09;1250592;23;669;-62
2023/05/15 03:12:15;;;;;;;;;;;;;;;18.43;65.44;101212.19;1251103;23;626;-62
2023/05/15 03:13:06;;;;;;;;;;;;;;;18.39;65.13;101217.00;1250717;23;661;-62
2023/05/15 03:13:58;;;;;;;;;;;;;;;18.36;64.54;101201.09;1250960;23;642;-62
2023/05/15 03:14:49;;;;;;;;;;;;;;;18.31;65.65;101204.22;1251002;23;634;-62
2023/05/15 03:15:39;;;;;;;;;;;;;;;18.27;65.47;101200.09;1250898;23;670;-62
2023/05/15 03:16:30;;;;;;;;;;;;;;;18.26;66.17;101201.09;1250928;23;642;-62
2023/05/15 03:17:20;;;;;;;;;;;;;;;18.15;65.65;101194.97;1251262;23;634;-62
2023/05/15 03:18:11;;;;;;;;;;;;;;;18.14;65.42;101201.34;1251112;23;626;-62
2023/05/15 03:19:01;;;;;;;;;;;;;;;18.19;65.54;101194.56;1250774;23;688;-62
2023/05/15 03:19:52;;;;;;;;;;;;;;;18.24;65.71;101192.28;1250855;23;614;-62
2023/05/15 03:20:42;;;;;;;;;;;;;;;18.28;65.64;101195.53;1247204;23;686;-62
2023/05/15 03:21:33;;;;;;;;;;;;;;;18.25;65.92;101201.25;1250983;23;610;-62
2023/05/15 03:22:24;;;;;;;;;;;;;;;18.12;65.28;101198.78;1246944;23;1943;-62
2023/05/15 03:23:15;;;;;;;;;;;;;;;18.15;65.69;101203.06;1246767;23;619;-62
2023/05/15 03:24:05;;;;;;;;;;;;;;;18.22;66.26;101199.69;1251056;23;642;-62
2023/05/15 03:24:55;;;;;;;;;;;;;;;18.23;66.25;101198.69;1250847;23;646;-62
2023/05/15 03:25:46;;;;;;;;;;;;;;;18.24;65.09;101192.28;1250630;23;696;-62
2023/05/15 03:26:36;;;;;;;;;;;;;;;18.22;65.90;101194.28;1250917;23;614;-62
2023/05/15 03:27:27;;;;;;;;;;;;;;;18.25;65.83;101195.84;1250621;23;673;-62
2023/05/15 03:28:17;;;;;;;;;;;;;;;18.21;64.70;101192.56;1246867;23;616;-62
2023/05/15 03:29:08;;;;;;;;;;;;;;;18.11;66.09;101194.38;1250830;23;653;-62
2023/05/15 03:29:58;;;;;;;;;;;;;;;18.13;65.83;101189.72;1250972;23;676;-62
2023/05/15 03:30:48;;;;;;;;;;;;;;;18.09;65.93;101188.31;1250859;23;618;-62
2023/05/15 03:31:39;;;;;;;;;;;;;;;18.14;66.12;101190.56;1250638;23;630;-62
2023/05/15 03:32:30;;;;;;;;;;;;;;;18.16;66.44;101191.28;1246810;23;524;-62
2023/05/15 03:33:20;;;;;;;;;;;;;;;18.22;66.05;101188.88;1247011;23;678;-62
2023/05/15 03:34:10;;;;;;;;;;;;;;;18.23;65.00;101190.59;1250523;23;641;-63
2023/05/15 03:35:01;;;;;;;;;;;;;;;18.21;65.43;101189.03;1250655;23;616;-62
2023/05/15 03:35:51;;;;;;;;;;;;;;;18.24;65.61;101192.28;1246757;23;607;-62
2023/05/15 03:36:42;;;;;;;;;;;;;;;18.23;64.70;101193.28;1250805;23;618;-62
2023/05/15 03:37:32;;;;;;;;;;;;;;;18.16;65.56;101184.03;1250391;23;625;-63
2023/05/15 03:38:22;;;;;;;;;;;;;;;18.17;65.50;101196.53;1250868;23;653;-63
2023/05/15 03:39:13;;;;;;;;;;;;;;;18.12;65.91;101193.41;1250774;23;712;-62
2023/05/15 03:40:03;;;;;;;;;;;;;;;18.09;66.06;101196.41;1246514;23;627;-63
2023/05/15 03:40:54;;;;;;;;;;;;;;;18.14;66.04;101190.56;1250882;23;681;-63
2023/05/15 03:41:44;;;;;;;;;;;;;;;18.16;66.04;101194.81;1250918;23;517;-62
2023/05/15 03:42:35;;;;;;;;;;;;;;;18.15;65.77;101195.81;1246799;23;1881;-62
2023/05/15 03:43:25;;;;;;;;;;;;;;;18.20;65.92;101182.78;1251035;23;669;-62
2023/05/15 03:44:15;;;;;;;;;;;;;;;18.19;65.07;101193.69;1250859;23;662;-63
2023/05/15 03:45:06;;;;;;;;;;;;;;;18.20;65.81;101184.63;1250671;23;653;-62
2023/05/15 03:45:56;;;;;;;;;;;;;;;18.20;65.44;101190.88;1249138;23;910;-62
2023/05/15 03:46:47;;;;;;;;;;;;;;;18.06;64.64;101193.97;1251050;23;641;-62
2023/05/15 03:47:37;;;;;;;;;;;;;;;18.02;66.29;101197.94;1247430;23;626;-62
2023/05/15 03:48:28;;;;;;;;;;;;;;;18.01;65.19;101194.38;1246480;23;1041;-63
2023/05/15 03:49:18;;;;;;;;;;;;;;;17.98;64.98;101193.81;1247420;23;611;-62
2023/05/15 03:50:09;;;;;;;;;;;;;;;17.91;64.65;101195.38;1246746;23;711;-62
2023/05/15 03:50:59;;;;;;;;;;;;;;;17.92;64.80;101192.50;1250856;23;606;-62
2023/05/15 03:51:50;;;;;;;;;;;;;;;17.97;66.10;101197.50;1250792;23;649;-62
2023/05/15 03:52:40;;;;;;;;;;;;;;;17.86;65.74;101200.31;1250638;23;665;-62
2023/05/15 03:53:30;;;;;;;;;;;;;;;17.91;66.57;101193.53;1251215;23;625;-62
2023/05/15 03:54:21;;;;;;;;;;;;;;;17.91;65.06;101196.22;1249399;23;634;-62
2023/05/15 03:55:11;;;;;;;;;;;;;;;17.71;66.39;101196.31;1250930;23;594;-62
2023/05/15 03:56:02;;;;;;;;;;;;;;;17.63;65.42;101195.09;1250583;23;661;-63
2023/05/15 03:56:52;;;;;;;;;;;;;;;17.64;65.61;101195.97;1246579;23;709;-63
2023/05/15 03:57:43;;;;;;;;;;;;;;;17.61;65.35;101188.97;1250725;23;712;-62
2023/05/15 03:58:33;;;;;;;;;;;;;;;17.69;65.81;101191.91;1250731;23;689;-62
2023/05/15 03:59:24;;;;;;;;;;;;;;;17.75;66.96;101192.31;1250695;23;673;-62
2023/05/15 04:00:14;;;;;;;;;;;;;;;17.78;65.96;101192.03;1251054;23;610;-62
2023/05/15 04:01:05;;;;;;;;;;;;;;;17.81;66.61;101194.47;1246781;23;655;-62
2023/05/15 04:01:55;;;;;;;;;;;;;;;17.79;64.85;101193.75;1251175;23;649;-62
2023/05/15 04:02:46;;;;;;;;;;;;;;;17.80;65.76;101192.75;1246970;23;622;-62
2023/05/15 04:03:36;;;;;;;;;;;;;;;17.81;65.68;101195.31;1250832;23;943;-62
2023/05/15 04:04:27;;;;;;;;;;;;;;;17.88;65.80;101193.78;1251117;23;653;-62
2023/05/15 04:05:18;;;;;;;;;;;;;;;17.94;65.87;101203.16;1250937;23;734;-62
2023/05/15 04:06:08;;;;;;;;;;;;;;;18.00;65.93;101202.59;1246756;23;667;-62
2023/05/15 04:06:59;;;;;;;;;;;;;;;17.94;65.18;101197.75;1246858;23;666;-62
2023/05/15 04:07:50;;;;;;;;;;;;;;;17.87;65.51;101191.25;1250751;23;664;-62
2023/05/15 04:08:40;;;;;;;;;;;;;;;17.89;65.45;101202.75;1250839;23;641;-62
2023/05/15 04:09:30;;;;;;;;;;;;;;;17.89;66.42;101198.19;1251074;23;653;-62
2023/05/15 04:10:21;;;;;;;;;;;;;;;17.97;66.07;101195.66;1250719;23;640;-62
2023/05/15 04:11:11;;;;;;;;;;;;;;;18.02;65.33;101197.94;1250949;23;629;-62
2023/05/15 04:12:02;;;;;;;;;;;;;;;18.05;65.46;101194.97;1251005;23;594;-62
2023/05/15 04:12:52;;;;;;;;;;;;;;;18.10;65.54;101194.53;1246886;23;658;-62
2023/05/15 04:13:42;;;;;;;;;;;;;;;18.09;64.77;101196.41;1250980;23;638;-63
2023/05/15 04:14:33;;;;;;;;;;;;;;;18.05;65.61;101197.66;1251029;23;664;-63
2023/05/15 04:15:23;;;;;;;;;;;;;;;18.03;65.34;101203.19;1251144;23;617;-62
2023/05/15 04:16:14;;;;;;;;;;;;;;;17.75;63.68;101211.19;1250964;23;696;-62
2023/05/15 04:17:05;;;;;;;;;;;;;;;17.75;66.69;101195.00;1250808;23;633;-62
2023/05/15 04:17:55;;;;;;;;;;;;;;;17.78;65.32;101206.38;1250676;23;692;-63
2023/05/15 04:18:46;;;;;;;;;;;;;;;17.82;66.59;101206.97;1251073;23;606;-62
2023/05/15 04:19:36;;;;;;;;;;;;;;;17.81;66.25;101211.50;1250927;23;657;-63
2023/05/15 04:20:26;;;;;;;;;;;;;;;17.89;65.96;101205.44;1251231;23;661;-63
2023/05/15 04:21:17;;;;;;;;;;;;;;;17.94;66.30;101216.63;1250695;23;708;-62
2023/05/15 04:22:07;;;;;;;;;;;;;;;17.95;66.05;101212.94;1250975;23;618;-62
2023/05/15 04:22:58;;;;;;;;;;;;;;;17.95;65.12;101210.25;1250993;23;681;-63
2023/05/15 04:23:48;;;;;;;;;;;;;;;17.99;65.19;101215.25;1247266;23;678;-62
2023/05/15 04:24:39;;;;;;;;;;;;;;;18.00;65.91;101216.09;1251089;23;646;-63
2023/05/15 04:25:29;;;;;;;;;;;;;;;17.96;64.47;101218.22;1250794;23;598;-62
2023/05/15 04:26:20;;;;;;;;;;;;;;;17.95;65.88;101212.94;1246554;23;627;-63